Private Wetterstation Sandau
Wetterdaten: Donnerstag, 14.02.2013
Datum Zeit Temp. A. Feuchte A. Luftdruck Regen Wind Richtung Richtung Taupunkt Windchill
14.02.2013 00:01 -1,2 C 86 % 1028,9 hPa 0,0 l/m 0,0 km/h (0 Bft) NW 315 -3,2 C -1,2 C
14.02.2013 00:06 -1,2 C 86 % 1029,0 hPa 0,0 l/m 0,0 km/h (0 Bft) NW 315 -3,2 C -1,2 C
14.02.2013 00:11 -1,2 C 86 % 1029,0 hPa 0,0 l/m 1,8 km/h (1 Bft) NW 315 -3,2 C -1,2 C
14.02.2013 00:16 -1,2 C 87 % 1029,1 hPa 0,0 l/m 0,0 km/h (0 Bft) NW 315 -3,1 C -1,2 C
14.02.2013 00:21 -1,2 C 87 % 1029,0 hPa 0,0 l/m 2,2 km/h (1 Bft) N-NO 22 -3,1 C -1,2 C
14.02.2013 00:26 -1,2 C 87 % 1029,0 hPa 0,0 l/m 0,0 km/h (0 Bft) N 360 -3,1 C -1,2 C
14.02.2013 00:31 -1,2 C 87 % 1029,0 hPa 0,0 l/m 2,2 km/h (1 Bft) N-NO 22 -3,1 C -1,2 C
14.02.2013 00:36 -1,3 C 87 % 1029,0 hPa 0,0 l/m 2,5 km/h (1 Bft) N-NW 337 -3,2 C -1,3 C
14.02.2013 00:41 -1,3 C 87 % 1029,0 hPa 0,0 l/m 0,0 km/h (0 Bft) N-NO 22 -3,2 C -1,3 C
14.02.2013 00:46 -1,3 C 87 % 1029,1 hPa 0,0 l/m 0,0 km/h (0 Bft) N-NO 22 -3,2 C -1,3 C
14.02.2013 00:51 -1,3 C 87 % 1028,9 hPa 0,0 l/m 0,0 km/h (0 Bft) N 360 -3,2 C -1,3 C
14.02.2013 00:56 -1,2 C 87 % 1029,1 hPa 0,0 l/m 0,0 km/h (0 Bft) W-NW 292 -3,1 C -1,2 C
14.02.2013 01:01 -1,2 C 88 % 1029,1 hPa 0,0 l/m 2,5 km/h (1 Bft) W 270 -2,9 C -1,2 C
14.02.2013 01:06 -1,2 C 88 % 1029,1 hPa 0,0 l/m 0,0 km/h (0 Bft) W-NW 292 -2,9 C -1,2 C
14.02.2013 01:11 -1,2 C 88 % 1029,2 hPa 0,0 l/m 2,2 km/h (1 Bft) W 270 -2,9 C -1,2 C
14.02.2013 01:16 -1,2 C 88 % 1029,2 hPa 0,0 l/m 0,0 km/h (0 Bft) W 270 -2,9 C -1,2 C
14.02.2013 01:21 -1,2 C 87 % 1029,1 hPa 0,0 l/m 0,0 km/h (0 Bft) W 270 -3,1 C -1,2 C
14.02.2013 01:26 -1,2 C 87 % 1029,1 hPa 0,0 l/m 0,0 km/h (0 Bft) W 270 -3,1 C -1,2 C
14.02.2013 01:31 -1,2 C 87 % 1029,2 hPa 0,0 l/m 0,0 km/h (0 Bft) W 270 -3,1 C -1,2 C
14.02.2013 01:36 -1,2 C 87 % 1029,2 hPa 0,0 l/m 0,0 km/h (0 Bft) W 270 -3,1 C -1,2 C
14.02.2013 01:41 -1,3 C 87 % 1029,1 hPa 0,0 l/m 4,0 km/h (1 Bft) W 270 -3,2 C -1,3 C
14.02.2013 01:46 -1,3 C 87 % 1029,3 hPa 0,0 l/m 8,6 km/h (2 Bft) W-SW 247 -3,2 C -4,5 C
14.02.2013 01:51 -1,4 C 87 % 1029,3 hPa 0,0 l/m 3,2 km/h (1 Bft) W-SW 247 -3,3 C -1,4 C
14.02.2013 01:56 -1,5 C 87 % 1029,2 hPa 0,0 l/m 0,0 km/h (0 Bft) W-SW 247 -3,4 C -1,5 C
14.02.2013 02:01 -1,6 C 87 % 1029,2 hPa 0,0 l/m 0,0 km/h (0 Bft) W-SW 247 -3,5 C -1,6 C
14.02.2013 02:06 -1,6 C 87 % 1029,2 hPa 0,0 l/m 0,0 km/h (0 Bft) W 270 -3,5 C -1,6 C
14.02.2013 02:11 -1,6 C 87 % 1029,1 hPa 0,0 l/m 3,6 km/h (1 Bft) W-NW 292 -3,5 C -1,6 C
14.02.2013 02:16 -1,6 C 87 % 1029,2 hPa 0,0 l/m 3,6 km/h (1 Bft) W-NW 292 -3,5 C -1,6 C
14.02.2013 02:21 -1,7 C 87 % 1029,2 hPa 0,0 l/m 3,2 km/h (1 Bft) W-NW 292 -3,6 C -1,7 C
14.02.2013 02:26 -1,8 C 87 % 1029,2 hPa 0,0 l/m 2,9 km/h (1 Bft) W-NW 292 -3,7 C -1,8 C
14.02.2013 02:31 -1,9 C 87 % 1029,0 hPa 0,0 l/m 0,0 km/h (0 Bft) W 270 -3,8 C -1,9 C
14.02.2013 02:36 -1,9 C 87 % 1029,1 hPa 0,0 l/m 0,0 km/h (0 Bft) W 270 -3,8 C -1,9 C
14.02.2013 02:41 -1,9 C 87 % 1029,0 hPa 0,0 l/m 0,0 km/h (0 Bft) W 270 -3,8 C -1,9 C
14.02.2013 02:46 -1,9 C 88 % 1029,0 hPa 0,0 l/m 0,0 km/h (0 Bft) W-SW 247 -3,6 C -1,9 C
14.02.2013 02:51 -1,9 C 88 % 1028,9 hPa 0,0 l/m 0,0 km/h (0 Bft) W-SW 247 -3,6 C -1,9 C
14.02.2013 02:56 -1,9 C 88 % 1028,9 hPa 0,0 l/m 0,0 km/h (0 Bft) W-SW 247 -3,6 C -1,9 C
14.02.2013 03:01 -1,9 C 88 % 1028,8 hPa 0,0 l/m 0,0 km/h (0 Bft) W-SW 247 -3,6 C -1,9 C
14.02.2013 03:06 -1,9 C 88 % 1028,9 hPa 0,0 l/m 0,0 km/h (0 Bft) W-SW 247 -3,6 C -1,9 C
14.02.2013 03:11 -1,8 C 88 % 1028,8 hPa 0,0 l/m 1,4 km/h (1 Bft) W-SW 247 -3,5 C -1,8 C
14.02.2013 03:16 -1,8 C 88 % 1028,5 hPa 0,0 l/m 0,0 km/h (0 Bft) W-SW 247 -3,5 C -1,8 C
14.02.2013 03:21 -1,8 C 88 % 1028,6 hPa 0,0 l/m 0,0 km/h (0 Bft) W-SW 247 -3,5 C -1,8 C
14.02.2013 03:26 -1,8 C 88 % 1028,6 hPa 0,0 l/m 0,0 km/h (0 Bft) W-SW 247 -3,5 C -1,8 C
14.02.2013 03:31 -1,8 C 88 % 1028,6 hPa 0,0 l/m 1,4 km/h (1 Bft) W-SW 247 -3,5 C -1,8 C
14.02.2013 03:36 -1,8 C 88 % 1028,5 hPa 0,0 l/m 4,3 km/h (1 Bft) W-SW 247 -3,5 C -1,8 C
14.02.2013 03:41 -1,9 C 88 % 1028,4 hPa 0,0 l/m 1,4 km/h (1 Bft) SW 225 -3,6 C -1,9 C
14.02.2013 03:46 -1,9 C 88 % 1028,3 hPa 0,0 l/m 4,0 km/h (1 Bft) W-SW 247 -3,6 C -1,9 C
14.02.2013 03:51 -1,9 C 88 % 1028,4 hPa 0,0 l/m 0,0 km/h (0 Bft) SW 225 -3,6 C -1,9 C
14.02.2013 03:56 -1,9 C 88 % 1028,3 hPa 0,0 l/m 0,0 km/h (0 Bft) SW 225 -3,6 C -1,9 C
14.02.2013 04:01 -2,1 C 88 % 1028,3 hPa 0,0 l/m 0,0 km/h (0 Bft) SW 225 -3,8 C -2,1 C
14.02.2013 04:06 -2,1 C 88 % 1028,1 hPa 0,0 l/m 0,0 km/h (0 Bft) S-SW 202 -3,8 C -2,1 C
14.02.2013 04:11 -2,1 C 88 % 1028,0 hPa 0,0 l/m 2,2 km/h (1 Bft) S-SW 202 -3,8 C -2,1 C
14.02.2013 04:16 -2,1 C 88 % 1028,1 hPa 0,0 l/m 0,0 km/h (0 Bft) S-SW 202 -3,8 C -2,1 C
14.02.2013 04:21 -2,1 C 88 % 1028,0 hPa 0,0 l/m 2,5 km/h (1 Bft) S-SW 202 -3,8 C -2,1 C
14.02.2013 04:26 -2,1 C 88 % 1028,0 hPa 0,0 l/m 2,2 km/h (1 Bft) S 180 -3,8 C -2,1 C
14.02.2013 04:31 -2,1 C 88 % 1028,1 hPa 0,0 l/m 2,2 km/h (1 Bft) S-SO 157 -3,8 C -2,1 C
14.02.2013 04:36 -2,1 C 88 % 1028,0 hPa 0,0 l/m 0,0 km/h (0 Bft) S-SW 202 -3,8 C -2,1 C
14.02.2013 04:41 -2,1 C 88 % 1027,9 hPa 0,0 l/m 0,0 km/h (0 Bft) S-SO 157 -3,8 C -2,1 C
14.02.2013 04:46 -2,1 C 88 % 1028,0 hPa 0,0 l/m 3,2 km/h (1 Bft) S-SO 157 -3,8 C -2,1 C
14.02.2013 04:51 -2,1 C 88 % 1028,0 hPa 0,0 l/m 4,7 km/h (1 Bft) S-SO 157 -3,8 C -3,8 C
14.02.2013 04:56 -2,1 C 88 % 1027,9 hPa 0,0 l/m 3,6 km/h (1 Bft) S 180 -3,8 C -2,1 C
14.02.2013 05:01 -2,1 C 88 % 1027,8 hPa 0,0 l/m 4,7 km/h (1 Bft) SW 225 -3,8 C -3,8 C
14.02.2013 05:06 -2,1 C 88 % 1027,8 hPa 0,0 l/m 2,2 km/h (1 Bft) S-SO 157 -3,8 C -2,1 C
14.02.2013 05:11 -2,1 C 88 % 1027,9 hPa 0,0 l/m 2,9 km/h (1 Bft) S 180 -3,8 C -2,1 C
14.02.2013 05:16 -2,1 C 88 % 1028,0 hPa 0,0 l/m 4,7 km/h (1 Bft) W-SW 247 -3,8 C -3,8 C
14.02.2013 05:21 -2,1 C 88 % 1028,0 hPa 0,0 l/m 5,4 km/h (1 Bft) S-SW 202 -3,8 C -4,2 C
14.02.2013 05:26 -2,2 C 88 % 1028,0 hPa 0,0 l/m 0,0 km/h (0 Bft) S-SW 202 -3,9 C -2,2 C
14.02.2013 05:31 -2,2 C 88 % 1028,0 hPa 0,0 l/m 3,6 km/h (1 Bft) SW 225 -3,9 C -2,2 C
14.02.2013 05:36 -2,2 C 88 % 1028,0 hPa 0,0 l/m 3,6 km/h (1 Bft) W-SW 247 -3,9 C -2,2 C
14.02.2013 05:41 -2,2 C 89 % 1028,0 hPa 0,0 l/m 0,0 km/h (0 Bft) W-SW 247 -3,8 C -2,2 C
14.02.2013 05:46 -2,2 C 89 % 1027,8 hPa 0,0 l/m 0,0 km/h (0 Bft) SW 225 -3,8 C -2,2 C
14.02.2013 05:51 -2,2 C 89 % 1027,8 hPa 0,0 l/m 3,2 km/h (1 Bft) W-SW 247 -3,8 C -2,2 C
14.02.2013 05:56 -2,2 C 89 % 1027,6 hPa 0,0 l/m 2,9 km/h (1 Bft) SW 225 -3,8 C -2,2 C
14.02.2013 06:01 -2,2 C 89 % 1027,6 hPa 0,0 l/m 0,0 km/h (0 Bft) S-SW 202 -3,8 C -2,2 C
14.02.2013 06:06 -2,2 C 89 % 1027,5 hPa 0,0 l/m 2,9 km/h (1 Bft) SW 225 -3,8 C -2,2 C
14.02.2013 06:11 -2,2 C 89 % 1027,6 hPa 0,0 l/m 2,5 km/h (1 Bft) S-SW 202 -3,8 C -2,2 C
14.02.2013 06:16 -2,2 C 89 % 1027,5 hPa 0,0 l/m 2,2 km/h (1 Bft) S-SW 202 -3,8 C -2,2 C
14.02.2013 06:21 -2,4 C 89 % 1027,6 hPa 0,0 l/m 4,7 km/h (1 Bft) S-SW 202 -4,0 C -4,2 C
14.02.2013 06:26 -2,4 C 89 % 1027,6 hPa 0,0 l/m 4,0 km/h (1 Bft) W-SW 247 -4,0 C -2,4 C
14.02.2013 06:31 -2,4 C 89 % 1027,5 hPa 0,0 l/m 6,5 km/h (2 Bft) W-SW 247 -4,0 C -5,0 C
14.02.2013 06:36 -2,4 C 89 % 1027,6 hPa 0,0 l/m 2,2 km/h (1 Bft) S-SW 202 -4,0 C -2,4 C
14.02.2013 06:41 -2,4 C 89 % 1027,5 hPa 0,0 l/m 5,0 km/h (1 Bft) SW 225 -4,0 C -4,3 C
14.02.2013 06:46 -2,4 C 89 % 1027,3 hPa 0,0 l/m 5,8 km/h (2 Bft) W-SW 247 -4,0 C -4,7 C
14.02.2013 06:51 -2,5 C 89 % 1027,2 hPa 0,0 l/m 4,0 km/h (1 Bft) SW 225 -4,1 C -2,5 C
14.02.2013 06:56 -2,5 C 89 % 1027,4 hPa 0,0 l/m 2,5 km/h (1 Bft) S-SW 202 -4,1 C -2,5 C
14.02.2013 07:01 -2,5 C 89 % 1027,4 hPa 0,0 l/m 4,0 km/h (1 Bft) S 180 -4,1 C -2,5 C
14.02.2013 07:06 -2,5 C 89 % 1027,4 hPa 0,0 l/m 4,0 km/h (1 Bft) S-SW 202 -4,1 C -2,5 C
14.02.2013 07:11 -2,5 C 89 % 1027,3 hPa 0,0 l/m 4,7 km/h (1 Bft) S 180 -4,1 C -4,3 C
14.02.2013 07:16 -2,5 C 89 % 1027,4 hPa 0,0 l/m 4,0 km/h (1 Bft) SW 225 -4,1 C -2,5 C
14.02.2013 07:21 -2,6 C 88 % 1027,3 hPa 0,0 l/m 3,6 km/h (1 Bft) S 180 -4,3 C -2,6 C
14.02.2013 07:26 -2,6 C 88 % 1027,3 hPa 0,0 l/m 4,0 km/h (1 Bft) S 180 -4,3 C -2,6 C
14.02.2013 07:31 -2,6 C 88 % 1027,2 hPa 0,0 l/m 1,1 km/h (1 Bft) W-SW 247 -4,3 C -2,6 C
14.02.2013 07:36 -2,6 C 88 % 1027,4 hPa 0,0 l/m 5,4 km/h (1 Bft) S-SW 202 -4,3 C -4,7 C
14.02.2013 07:41 -2,6 C 88 % 1027,4 hPa 0,0 l/m 4,0 km/h (1 Bft) SW 225 -4,3 C -2,6 C
14.02.2013 07:46 -2,7 C 88 % 1027,3 hPa 0,0 l/m 9,4 km/h (2 Bft) S-SW 202 -4,4 C -6,4 C
14.02.2013 07:51 -2,7 C 88 % 1027,3 hPa 0,0 l/m 4,0 km/h (1 Bft) S-SW 202 -4,4 C -2,7 C
14.02.2013 07:56 -2,7 C 88 % 1027,2 hPa 0,0 l/m 3,6 km/h (1 Bft) S-SO 157 -4,4 C -2,7 C
14.02.2013 08:01 -2,7 C 88 % 1027,1 hPa 0,0 l/m 6,5 km/h (2 Bft) S-SW 202 -4,4 C -5,3 C
14.02.2013 08:06 -2,7 C 88 % 1027,1 hPa 0,0 l/m 2,2 km/h (1 Bft) SW 225 -4,4 C -2,7 C
14.02.2013 08:11 -2,8 C 88 % 1027,1 hPa 0,0 l/m 5,4 km/h (1 Bft) S 180 -4,5 C -5,0 C
14.02.2013 08:16 -2,8 C 88 % 1027,2 hPa 0,0 l/m 3,2 km/h (1 Bft) S-SW 202 -4,5 C -2,8 C
14.02.2013 08:21 -2,8 C 88 % 1027,2 hPa 0,0 l/m 4,0 km/h (1 Bft) S-SW 202 -4,5 C -2,8 C
14.02.2013 08:26 -2,8 C 89 % 1027,2 hPa 0,0 l/m 3,6 km/h (1 Bft) S 180 -4,4 C -2,8 C
14.02.2013 08:31 -2,7 C 89 % 1027,1 hPa 0,0 l/m 1,8 km/h (1 Bft) S 180 -4,3 C -2,7 C
14.02.2013 08:36 -2,7 C 89 % 1027,2 hPa 0,0 l/m 1,4 km/h (1 Bft) S-SO 157 -4,3 C -2,7 C
14.02.2013 08:41 -2,7 C 89 % 1027,1 hPa 0,0 l/m 2,9 km/h (1 Bft) S 180 -4,3 C -2,7 C
14.02.2013 08:46 -2,7 C 89 % 1027,0 hPa 0,0 l/m 1,8 km/h (1 Bft) S 180 -4,3 C -2,7 C
14.02.2013 08:51 -2,6 C 89 % 1027,0 hPa 0,0 l/m 2,5 km/h (1 Bft) S-SO 157 -4,2 C -2,6 C
14.02.2013 08:56 -2,6 C 89 % 1027,0 hPa 0,0 l/m 1,4 km/h (1 Bft) S 180 -4,2 C -2,6 C
14.02.2013 09:01 -2,5 C 89 % 1026,9 hPa 0,0 l/m 3,6 km/h (1 Bft) SW 225 -4,1 C -2,5 C
14.02.2013 09:06 -2,4 C 89 % 1027,0 hPa 0,0 l/m 1,4 km/h (1 Bft) S 180 -4,0 C -2,4 C
14.02.2013 09:11 -2,4 C 89 % 1027,0 hPa 0,0 l/m 3,6 km/h (1 Bft) S 180 -4,0 C -2,4 C
14.02.2013 09:16 -2,4 C 89 % 1027,0 hPa 0,0 l/m 4,0 km/h (1 Bft) S-SW 202 -4,0 C -2,4 C
14.02.2013 09:21 -2,2 C 89 % 1026,9 hPa 0,0 l/m 6,5 km/h (2 Bft) SW 225 -3,8 C -4,8 C
14.02.2013 09:26 -2,2 C 89 % 1026,9 hPa 0,0 l/m 5,0 km/h (1 Bft) S-SW 202 -3,8 C -4,1 C
14.02.2013 09:31 -2,2 C 89 % 1026,8 hPa 0,0 l/m 3,2 km/h (1 Bft) S-SW 202 -3,8 C -2,2 C
14.02.2013 09:36 -2,2 C 89 % 1026,7 hPa 0,0 l/m 0,0 km/h (0 Bft) S-SW 202 -3,8 C -2,2 C
14.02.2013 09:41 -2,1 C 89 % 1026,7 hPa 0,0 l/m 1,4 km/h (1 Bft) S-SW 202 -3,7 C -2,1 C
14.02.2013 09:46 -2,1 C 89 % 1026,6 hPa 0,0 l/m 5,8 km/h (2 Bft) S-SW 202 -3,7 C -4,4 C
14.02.2013 09:51 -1,9 C 89 % 1026,8 hPa 0,0 l/m 6,5 km/h (2 Bft) S 180 -3,5 C -4,4 C
14.02.2013 09:56 -1,9 C 89 % 1026,5 hPa 0,0 l/m 6,1 km/h (2 Bft) S 180 -3,5 C -4,3 C
14.02.2013 10:01 -1,9 C 89 % 1026,6 hPa 0,0 l/m 5,4 km/h (1 Bft) S 180 -3,5 C -3,9 C
14.02.2013 10:06 -1,8 C 89 % 1026,5 hPa 0,0 l/m 1,4 km/h (1 Bft) S-SW 202 -3,4 C -1,8 C
14.02.2013 10:11 -1,7 C 89 % 1026,6 hPa 0,0 l/m 3,6 km/h (1 Bft) S-SO 157 -3,3 C -1,7 C
14.02.2013 10:16 -1,7 C 89 % 1026,7 hPa 0,0 l/m 3,2 km/h (1 Bft) SO 135 -3,3 C -1,7 C
14.02.2013 10:21 -1,7 C 89 % 1026,5 hPa 0,0 l/m 6,1 km/h (2 Bft) S-SO 157 -3,3 C -4,0 C
14.02.2013 10:26 -1,6 C 89 % 1026,5 hPa 0,0 l/m 4,0 km/h (1 Bft) S-SO 157 -3,2 C -1,6 C
14.02.2013 10:31 -1,6 C 88 % 1026,4 hPa 0,0 l/m 4,0 km/h (1 Bft) S-SW 202 -3,3 C -1,6 C
14.02.2013 10:36 -1,6 C 88 % 1026,4 hPa 0,0 l/m 3,2 km/h (1 Bft) S 180 -3,3 C -1,6 C
14.02.2013 10:41 -1,5 C 88 % 1026,3 hPa 0,0 l/m 3,2 km/h (1 Bft) S-SO 157 -3,2 C -1,5 C
14.02.2013 10:46 -1,4 C 88 % 1026,3 hPa 0,0 l/m 1,4 km/h (1 Bft) S-SO 157 -3,1 C -1,4 C
14.02.2013 10:51 -1,1 C 88 % 1026,3 hPa 0,0 l/m 3,2 km/h (1 Bft) SW 225 -2,8 C -1,1 C
14.02.2013 10:56 -1,0 C 88 % 1026,3 hPa 0,0 l/m 0,0 km/h (0 Bft) S-SW 202 -2,7 C -1,0 C
14.02.2013 11:01 -0,9 C 88 % 1026,2 hPa 0,0 l/m 2,2 km/h (1 Bft) S-SO 157 -2,6 C -0,9 C
14.02.2013 11:06 -0,8 C 88 % 1026,1 hPa 0,0 l/m 1,8 km/h (1 Bft) SO 135 -2,5 C -0,8 C
14.02.2013 11:11 -0,8 C 88 % 1026,3 hPa 0,0 l/m 3,2 km/h (1 Bft) SO 135 -2,5 C -0,8 C
14.02.2013 11:16 -0,8 C 87 % 1026,1 hPa 0,0 l/m 2,5 km/h (1 Bft) S-SO 157 -2,7 C -0,8 C
14.02.2013 11:21 -0,7 C 87 % 1026,0 hPa 0,0 l/m 4,0 km/h (1 Bft) SO 135 -2,6 C -0,7 C
14.02.2013 11:26 -0,7 C 86 % 1025,8 hPa 0,0 l/m 0,0 km/h (0 Bft) SO 135 -2,7 C -0,7 C
14.02.2013 11:31 -0,7 C 86 % 1026,1 hPa 0,0 l/m 0,0 km/h (0 Bft) NO 45 -2,7 C -0,7 C
14.02.2013 11:36 -0,6 C 86 % 1025,9 hPa 0,0 l/m 0,0 km/h (0 Bft) S-SO 157 -2,6 C -0,6 C
14.02.2013 11:41 -0,5 C 86 % 1026,1 hPa 0,0 l/m 0,0 km/h (0 Bft) S-SO 157 -2,5 C -0,5 C
14.02.2013 11:46 -0,4 C 86 % 1025,7 hPa 0,0 l/m 2,5 km/h (1 Bft) S-SW 202 -2,4 C -0,4 C
14.02.2013 11:51 -0,4 C 86 % 1025,9 hPa 0,0 l/m 4,0 km/h (1 Bft) S 180 -2,4 C -0,4 C
14.02.2013 11:56 -0,2 C 86 % 1025,8 hPa 0,0 l/m 2,5 km/h (1 Bft) S 180 -2,3 C -0,2 C
14.02.2013 12:01 -0,2 C 85 % 1025,7 hPa 0,0 l/m 2,9 km/h (1 Bft) SW 225 -2,4 C -0,2 C
14.02.2013 12:06 -0,1 C 85 % 1025,7 hPa 0,0 l/m 0,0 km/h (0 Bft) S-SO 157 -2,3 C -0,1 C
14.02.2013 12:11 -0,1 C 85 % 1025,6 hPa 0,0 l/m 2,5 km/h (1 Bft) S-SO 157 -2,3 C -0,1 C
14.02.2013 12:16 0,1 C 85 % 1025,4 hPa 0,0 l/m 2,2 km/h (1 Bft) S-SO 157 -2,1 C 0,1 C
14.02.2013 12:21 0,2 C 84 % 1025,2 hPa 0,0 l/m 1,1 km/h (1 Bft) S-SO 157 -2,2 C 0,2 C
14.02.2013 12:26 0,3 C 84 % 1025,3 hPa 0,0 l/m 0,0 km/h (0 Bft) S 180 -2,1 C 0,3 C
14.02.2013 12:31 0,4 C 84 % 1025,2 hPa 0,0 l/m 4,0 km/h (1 Bft) S-SW 202 -2,0 C 0,4 C
14.02.2013 12:36 0,6 C 83 % 1025,0 hPa 0,0 l/m 3,2 km/h (1 Bft) S-SO 157 -1,9 C 0,6 C
14.02.2013 12:41 0,7 C 82 % 1025,1 hPa 0,0 l/m 4,7 km/h (1 Bft) SO 135 -2,0 C -0,7 C
14.02.2013 12:46 0,8 C 82 % 1025,0 hPa 0,0 l/m 2,5 km/h (1 Bft) S-SO 157 -1,9 C 0,8 C
14.02.2013 12:51 0,9 C 81 % 1024,9 hPa 0,0 l/m 1,1 km/h (1 Bft) S 180 -2,0 C 0,9 C
14.02.2013 12:56 0,9 C 81 % 1024,8 hPa 0,0 l/m 0,0 km/h (0 Bft) SO 135 -2,0 C 0,9 C
14.02.2013 13:01 1,0 C 80 % 1024,7 hPa 0,0 l/m 3,2 km/h (1 Bft) SO 135 -2,1 C 1,0 C
14.02.2013 13:06 0,9 C 80 % 1024,7 hPa 0,0 l/m 5,4 km/h (1 Bft) SO 135 -2,2 C -0,7 C
14.02.2013 13:11 0,9 C 80 % 1024,7 hPa 0,0 l/m 2,9 km/h (1 Bft) S-SW 202 -2,2 C 0,9 C
14.02.2013 13:16 0,8 C 79 % 1024,5 hPa 0,0 l/m 5,0 km/h (1 Bft) O-SO 112 -2,4 C -0,7 C
14.02.2013 13:21 0,8 C 80 % 1024,5 hPa 0,0 l/m 0,0 km/h (0 Bft) SO 135 -2,2 C 0,8 C
14.02.2013 13:26 0,7 C 80 % 1024,4 hPa 0,0 l/m 3,6 km/h (1 Bft) SO 135 -2,3 C 0,7 C
14.02.2013 13:31 0,6 C 81 % 1024,3 hPa 0,0 l/m 3,2 km/h (1 Bft) S-SO 157 -2,3 C 0,6 C
14.02.2013 13:36 0,7 C 81 % 1024,2 hPa 0,0 l/m 7,6 km/h (2 Bft) S-SO 157 -2,2 C -1,8 C
14.02.2013 13:41 0,9 C 81 % 1024,0 hPa 0,0 l/m 0,0 km/h (0 Bft) S-SO 157 -2,0 C 0,9 C
14.02.2013 13:46 1,1 C 81 % 1024,0 hPa 0,0 l/m 5,8 km/h (2 Bft) O-SO 112 -1,8 C -0,7 C
14.02.2013 13:51 1,3 C 80 % 1024,0 hPa 0,0 l/m 8,6 km/h (2 Bft) O-SO 112 -1,8 C -1,4 C
14.02.2013 13:56 1,1 C 79 % 1023,8 hPa 0,0 l/m 6,1 km/h (2 Bft) O-SO 112 -2,1 C -0,8 C
14.02.2013 14:01 0,9 C 79 % 1023,6 hPa 0,0 l/m 4,3 km/h (1 Bft) O 90 -2,3 C 0,9 C
14.02.2013 14:06 0,8 C 79 % 1023,7 hPa 0,0 l/m 6,5 km/h (2 Bft) O-SO 112 -2,4 C -1,3 C
14.02.2013 14:11 0,6 C 79 % 1023,6 hPa 0,0 l/m 2,9 km/h (1 Bft) SO 135 -2,6 C 0,6 C
14.02.2013 14:16 0,5 C 80 % 1023,5 hPa 0,0 l/m 2,5 km/h (1 Bft) O-SO 112 -2,5 C 0,5 C
14.02.2013 14:21 0,4 C 80 % 1023,3 hPa 0,0 l/m 5,0 km/h (1 Bft) O 90 -2,6 C -1,1 C
14.02.2013 14:26 0,5 C 80 % 1023,3 hPa 0,0 l/m 3,6 km/h (1 Bft) SO 135 -2,5 C 0,5 C
14.02.2013 14:31 0,7 C 80 % 1023,2 hPa 0,0 l/m 13,7 km/h (3 Bft) O-SO 112 -2,3 C -3,3 C
14.02.2013 14:36 0,8 C 79 % 1023,2 hPa 0,0 l/m 5,4 km/h (1 Bft) O-SO 112 -2,4 C -0,9 C
14.02.2013 14:41 0,9 C 79 % 1023,0 hPa 0,0 l/m 5,0 km/h (1 Bft) O-SO 112 -2,3 C -0,6 C
14.02.2013 14:46 0,8 C 78 % 1023,0 hPa 0,0 l/m 6,1 km/h (2 Bft) O-SO 112 -2,6 C -1,1 C
14.02.2013 14:51 0,8 C 79 % 1023,0 hPa 0,0 l/m 2,2 km/h (1 Bft) O-SO 112 -2,4 C 0,8 C
14.02.2013 14:56 0,8 C 79 % 1022,8 hPa 0,0 l/m 9,4 km/h (2 Bft) O-SO 112 -2,4 C -2,2 C
14.02.2013 15:01 0,8 C 79 % 1022,8 hPa 0,0 l/m 4,7 km/h (1 Bft) SO 135 -2,4 C -0,5 C
14.02.2013 15:06 0,9 C 79 % 1022,6 hPa 0,0 l/m 11,2 km/h (2 Bft) S-SO 157 -2,3 C -2,5 C
14.02.2013 15:11 0,8 C 79 % 1022,6 hPa 0,0 l/m 7,6 km/h (2 Bft) SO 135 -2,4 C -1,7 C
14.02.2013 15:16 0,8 C 79 % 1022,7 hPa 0,0 l/m 3,6 km/h (1 Bft) O-SO 112 -2,4 C 0,8 C
14.02.2013 15:21 0,6 C 79 % 1022,6 hPa 0,0 l/m 4,0 km/h (1 Bft) SO 135 -2,6 C 0,6 C
14.02.2013 15:26 0,5 C 79 % 1022,5 hPa 0,0 l/m 7,2 km/h (2 Bft) SO 135 -2,7 C -1,9 C
14.02.2013 15:31 0,4 C 79 % 1022,6 hPa 0,0 l/m 7,9 km/h (2 Bft) S-SO 157 -2,8 C -2,2 C
14.02.2013 15:36 0,4 C 80 % 1022,4 hPa 0,0 l/m 4,0 km/h (1 Bft) SO 135 -2,6 C 0,4 C
14.02.2013 15:41 0,4 C 80 % 1022,4 hPa 0,0 l/m 5,4 km/h (1 Bft) O-SO 112 -2,6 C -1,3 C
14.02.2013 15:46 0,2 C 80 % 1022,3 hPa 0,0 l/m 3,2 km/h (1 Bft) S-SO 157 -2,8 C 0,2 C
14.02.2013 15:51 0,2 C 80 % 1022,2 hPa 0,0 l/m 8,6 km/h (2 Bft) S-SO 157 -2,8 C -2,7 C
14.02.2013 15:56 0,2 C 80 % 1022,2 hPa 0,0 l/m 7,6 km/h (2 Bft) S-SO 157 -2,8 C -2,4 C
14.02.2013 16:01 0,2 C 80 % 1022,2 hPa 0,0 l/m 7,2 km/h (2 Bft) S-SO 157 -2,8 C -2,2 C
14.02.2013 16:06 0,2 C 80 % 1022,0 hPa 0,0 l/m 7,6 km/h (2 Bft) SO 135 -2,8 C -2,4 C
14.02.2013 16:11 0,2 C 80 % 1021,9 hPa 0,0 l/m 5,4 km/h (1 Bft) SO 135 -2,8 C -1,5 C
14.02.2013 16:16 0,2 C 80 % 1021,9 hPa 0,0 l/m 3,2 km/h (1 Bft) SO 135 -2,8 C 0,2 C
14.02.2013 16:21 0,1 C 80 % 1021,9 hPa 0,0 l/m 11,2 km/h (2 Bft) O-SO 112 -2,9 C -3,5 C
14.02.2013 16:26 0,1 C 80 % 1022,0 hPa 0,0 l/m 9,0 km/h (2 Bft) SO 135 -2,9 C -2,9 C
14.02.2013 16:31 0,1 C 81 % 1022,0 hPa 0,0 l/m 4,7 km/h (1 Bft) O 90 -2,8 C -1,3 C
14.02.2013 16:36 0,1 C 81 % 1021,9 hPa 0,0 l/m 2,5 km/h (1 Bft) SO 135 -2,8 C 0,1 C
14.02.2013 16:41 0,1 C 82 % 1022,0 hPa 0,0 l/m 4,7 km/h (1 Bft) SO 135 -2,6 C -1,3 C
14.02.2013 16:46 0,1 C 82 % 1021,8 hPa 0,0 l/m 4,7 km/h (1 Bft) SO 135 -2,6 C -1,3 C
14.02.2013 16:51 0,1 C 82 % 1021,8 hPa 0,0 l/m 4,3 km/h (1 Bft) S-SO 157 -2,6 C 0,1 C
14.02.2013 16:56 0,1 C 82 % 1021,8 hPa 0,0 l/m 9,0 km/h (2 Bft) SO 135 -2,6 C -2,9 C
14.02.2013 17:01 0,1 C 82 % 1021,8 hPa 0,0 l/m 4,7 km/h (1 Bft) S-SO 157 -2,6 C -1,3 C
14.02.2013 17:06 0,1 C 83 % 1021,7 hPa 0,0 l/m 4,7 km/h (1 Bft) SO 135 -2,4 C -1,3 C
14.02.2013 17:11 0,1 C 83 % 1021,6 hPa 0,0 l/m 4,7 km/h (1 Bft) SO 135 -2,4 C -1,3 C
14.02.2013 17:16 0,1 C 83 % 1021,6 hPa 0,0 l/m 13,7 km/h (3 Bft) SO 135 -2,4 C -4,0 C
14.02.2013 17:21 -0,1 C 83 % 1021,6 hPa 0,0 l/m 11,2 km/h (2 Bft) SO 135 -2,6 C -3,7 C
14.02.2013 17:26 -0,1 C 83 % 1021,5 hPa 0,0 l/m 11,5 km/h (2 Bft) S-SO 157 -2,6 C -3,8 C
14.02.2013 17:31 -0,1 C 83 % 1021,5 hPa 0,0 l/m 4,7 km/h (1 Bft) S 180 -2,6 C -1,6 C
14.02.2013 17:36 -0,1 C 82 % 1021,4 hPa 0,0 l/m 4,0 km/h (1 Bft) S-SO 157 -2,8 C -0,1 C
14.02.2013 17:41 -0,1 C 82 % 1021,6 hPa 0,0 l/m 8,6 km/h (2 Bft) SO 135 -2,8 C -3,0 C
14.02.2013 17:46 -0,1 C 82 % 1021,5 hPa 0,0 l/m 8,3 km/h (2 Bft) S-SO 157 -2,8 C -2,9 C
14.02.2013 17:51 -0,1 C 82 % 1021,4 hPa 0,0 l/m 5,0 km/h (1 Bft) SO 135 -2,8 C -1,7 C
14.02.2013 17:56 -0,1 C 82 % 1021,4 hPa 0,0 l/m 5,8 km/h (2 Bft) O-SO 112 -2,8 C -2,1 C
14.02.2013 18:01 -0,1 C 82 % 1021,5 hPa 0,0 l/m 4,7 km/h (1 Bft) SO 135 -2,8 C -1,6 C
14.02.2013 18:06 -0,1 C 82 % 1021,4 hPa 0,0 l/m 4,0 km/h (1 Bft) S 180 -2,8 C -0,1 C
14.02.2013 18:11 -0,1 C 82 % 1021,4 hPa 0,0 l/m 11,9 km/h (2 Bft) S-SO 157 -2,8 C -3,9 C
14.02.2013 18:16 -0,2 C 82 % 1021,4 hPa 0,0 l/m 4,0 km/h (1 Bft) S 180 -2,9 C -0,2 C
14.02.2013 18:21 -0,2 C 82 % 1021,3 hPa 0,0 l/m 6,5 km/h (2 Bft) S-SO 157 -2,9 C -2,5 C
14.02.2013 18:26 -0,2 C 82 % 1021,2 hPa 0,0 l/m 9,4 km/h (2 Bft) S-SO 157 -2,9 C -3,4 C
14.02.2013 18:31 -0,3 C 82 % 1021,2 hPa 0,0 l/m 15,5 km/h (3 Bft) S 180 -3,0 C -4,9 C
14.02.2013 18:36 -0,4 C 82 % 1021,1 hPa 0,0 l/m 4,0 km/h (1 Bft) SO 135 -3,1 C -0,4 C
14.02.2013 18:41 -0,4 C 82 % 1021,1 hPa 0,0 l/m 5,8 km/h (2 Bft) O-SO 112 -3,1 C -2,4 C
14.02.2013 18:46 -0,5 C 82 % 1021,0 hPa 0,0 l/m 9,7 km/h (2 Bft) S-SO 157 -3,2 C -3,8 C
14.02.2013 18:51 -0,6 C 82 % 1021,1 hPa 0,0 l/m 8,6 km/h (2 Bft) SO 135 -3,3 C -3,6 C
14.02.2013 18:56 -0,6 C 82 % 1021,1 hPa 0,0 l/m 6,8 km/h (2 Bft) S-SO 157 -3,3 C -3,0 C
14.02.2013 19:01 -0,6 C 82 % 1021,1 hPa 0,0 l/m 7,6 km/h (2 Bft) SO 135 -3,3 C -3,3 C
14.02.2013 19:06 -0,6 C 83 % 1020,9 hPa 0,0 l/m 10,4 km/h (2 Bft) SO 135 -3,1 C -4,1 C
14.02.2013 19:11 -0,6 C 83 % 1020,8 hPa 0,0 l/m 5,0 km/h (1 Bft) SO 135 -3,1 C -2,3 C
14.02.2013 19:16 -0,6 C 83 % 1020,8 hPa 0,0 l/m 2,5 km/h (1 Bft) SO 135 -3,1 C -0,6 C
14.02.2013 19:21 -0,7 C 83 % 1020,8 hPa 0,0 l/m 6,8 km/h (2 Bft) SO 135 -3,2 C -3,1 C
14.02.2013 19:26 -0,7 C 83 % 1020,8 hPa 0,0 l/m 15,8 km/h (3 Bft) S-SO 157 -3,2 C -5,4 C
14.02.2013 19:31 -0,7 C 84 % 1020,8 hPa 0,0 l/m 14,4 km/h (3 Bft) S-SO 157 -3,1 C -5,2 C
14.02.2013 19:36 -0,7 C 84 % 1020,6 hPa 0,0 l/m 14,8 km/h (3 Bft) S 180 -3,1 C -5,2 C
14.02.2013 19:41 -0,7 C 84 % 1020,6 hPa 0,0 l/m 10,4 km/h (2 Bft) SO 135 -3,1 C -4,3 C
14.02.2013 19:46 -0,7 C 84 % 1020,6 hPa 0,0 l/m 7,9 km/h (2 Bft) S-SO 157 -3,1 C -3,5 C
14.02.2013 19:51 -0,7 C 84 % 1020,6 hPa 0,0 l/m 10,1 km/h (2 Bft) O-SO 112 -3,1 C -4,2 C
14.02.2013 19:56 -0,7 C 84 % 1020,6 hPa 0,0 l/m 13,7 km/h (3 Bft) S-SO 157 -3,1 C -5,0 C
14.02.2013 20:01 -0,7 C 84 % 1020,6 hPa 0,0 l/m 11,9 km/h (2 Bft) S 180 -3,1 C -4,6 C
14.02.2013 20:06 -0,7 C 84 % 1020,7 hPa 0,0 l/m 13,7 km/h (3 Bft) SO 135 -3,1 C -5,0 C
14.02.2013 20:11 -0,7 C 84 % 1020,6 hPa 0,0 l/m 6,8 km/h (2 Bft) SO 135 -3,1 C -3,1 C
14.02.2013 20:16 -0,6 C 84 % 1020,4 hPa 0,0 l/m 11,2 km/h (2 Bft) O-SO 112 -3,0 C -4,3 C
14.02.2013 20:21 -0,6 C 84 % 1020,4 hPa 0,0 l/m 9,4 km/h (2 Bft) SO 135 -3,0 C -3,9 C
14.02.2013 20:26 -0,6 C 84 % 1020,4 hPa 0,0 l/m 6,8 km/h (2 Bft) S-SO 157 -3,0 C -3,0 C
14.02.2013 20:31 -0,6 C 84 % 1020,4 hPa 0,0 l/m 5,8 km/h (2 Bft) S-SO 157 -3,0 C -2,6 C
14.02.2013 20:36 -0,5 C 85 % 1020,3 hPa 0,0 l/m 8,3 km/h (2 Bft) S-SO 157 -2,7 C -3,4 C
14.02.2013 20:41 -0,5 C 85 % 1020,3 hPa 0,0 l/m 24,5 km/h (4 Bft) SO 135 -2,7 C -6,5 C
14.02.2013 20:46 -0,5 C 85 % 1020,3 hPa 0,0 l/m 9,0 km/h (2 Bft) S-SO 157 -2,7 C -3,6 C
14.02.2013 20:51 -0,5 C 84 % 1020,3 hPa 0,0 l/m 21,6 km/h (4 Bft) S 180 -2,9 C -6,1 C
14.02.2013 20:56 -0,6 C 84 % 1020,3 hPa 0,0 l/m 8,3 km/h (2 Bft) S-SO 157 -3,0 C -3,5 C
14.02.2013 21:01 -0,6 C 84 % 1020,3 hPa 0,0 l/m 7,2 km/h (2 Bft) S-SO 157 -3,0 C -3,2 C
14.02.2013 21:06 -0,6 C 84 % 1020,3 hPa 0,0 l/m 13,7 km/h (3 Bft) S-SW 202 -3,0 C -4,9 C
14.02.2013 21:11 -0,6 C 84 % 1020,4 hPa 0,0 l/m 12,6 km/h (3 Bft) SO 135 -3,0 C -4,7 C
14.02.2013 21:16 -0,7 C 84 % 1020,3 hPa 0,0 l/m 11,9 km/h (2 Bft) SO 135 -3,1 C -4,6 C
14.02.2013 21:21 -0,7 C 85 % 1020,4 hPa 0,0 l/m 0,0 km/h (0 Bft) S-SO 157 -2,9 C -0,7 C
14.02.2013 21:26 -0,7 C 85 % 1020,4 hPa 0,0 l/m 4,7 km/h (1 Bft) S 180 -2,9 C -2,2 C
14.02.2013 21:31 -0,7 C 85 % 1020,4 hPa 0,0 l/m 14,4 km/h (3 Bft) SO 135 -2,9 C -5,2 C
14.02.2013 21:36 -0,8 C 85 % 1020,4 hPa 0,0 l/m 8,6 km/h (2 Bft) SO 135 -3,0 C -3,9 C
14.02.2013 21:41 -0,8 C 85 % 1020,3 hPa 0,0 l/m 9,0 km/h (2 Bft) SO 135 -3,0 C -4,0 C
14.02.2013 21:46 -0,8 C 85 % 1020,2 hPa 0,0 l/m 6,8 km/h (2 Bft) S-SO 157 -3,0 C -3,3 C
14.02.2013 21:51 -0,8 C 85 % 1020,2 hPa 0,0 l/m 9,4 km/h (2 Bft) SO 135 -3,0 C -4,1 C
14.02.2013 21:56 -0,8 C 86 % 1020,2 hPa 0,0 l/m 2,2 km/h (1 Bft) SO 135 -2,8 C -0,8 C
14.02.2013 22:01 -0,8 C 86 % 1020,2 hPa 0,0 l/m 5,8 km/h (2 Bft) S-SO 157 -2,8 C -2,9 C
14.02.2013 22:06 -0,8 C 86 % 1020,1 hPa 0,0 l/m 4,0 km/h (1 Bft) O-SO 112 -2,8 C -0,8 C
14.02.2013 22:11 -0,8 C 86 % 1020,3 hPa 0,0 l/m 6,8 km/h (2 Bft) SO 135 -2,8 C -3,3 C
14.02.2013 22:16 -0,8 C 86 % 1020,1 hPa 0,0 l/m 13,0 km/h (3 Bft) S-SO 157 -2,8 C -5,0 C
14.02.2013 22:21 -0,7 C 86 % 1020,0 hPa 0,0 l/m 6,1 km/h (2 Bft) O-NO 67 -2,7 C -2,9 C
14.02.2013 22:26 -0,8 C 86 % 1019,9 hPa 0,0 l/m 10,8 km/h (2 Bft) SO 135 -2,8 C -4,5 C
14.02.2013 22:31 -0,7 C 86 % 1019,9 hPa 0,0 l/m 16,9 km/h (3 Bft) SO 135 -2,7 C -5,6 C
14.02.2013 22:36 -0,7 C 86 % 1019,8 hPa 0,0 l/m 10,8 km/h (2 Bft) SO 135 -2,7 C -4,4 C
14.02.2013 22:41 -0,7 C 86 % 1019,8 hPa 0,0 l/m 9,4 km/h (2 Bft) S-SO 157 -2,7 C -4,0 C
14.02.2013 22:46 -0,7 C 86 % 1019,7 hPa 0,0 l/m 15,1 km/h (3 Bft) S-SO 157 -2,7 C -5,3 C
14.02.2013 22:51 -0,8 C 86 % 1019,6 hPa 0,0 l/m 9,7 km/h (2 Bft) SO 135 -2,8 C -4,2 C
14.02.2013 22:56 -0,8 C 86 % 1019,6 hPa 0,0 l/m 6,1 km/h (2 Bft) SO 135 -2,8 C -3,0 C
14.02.2013 23:01 -0,8 C 86 % 1019,7 hPa 0,0 l/m 3,2 km/h (1 Bft) SO 135 -2,8 C -0,8 C
14.02.2013 23:06 -0,8 C 87 % 1019,8 hPa 0,0 l/m 5,4 km/h (1 Bft) S-SO 157 -2,7 C -2,7 C
14.02.2013 23:11 -0,8 C 87 % 1019,5 hPa 0,0 l/m 7,6 km/h (2 Bft) SO 135 -2,7 C -3,5 C
14.02.2013 23:16 -0,8 C 87 % 1019,5 hPa 0,0 l/m 4,7 km/h (1 Bft) SO 135 -2,7 C -2,3 C
14.02.2013 23:21 -0,8 C 87 % 1019,6 hPa 0,0 l/m 9,7 km/h (2 Bft) S-SO 157 -2,7 C -4,2 C
14.02.2013 23:26 -0,8 C 87 % 1019,6 hPa 0,0 l/m 11,2 km/h (2 Bft) SO 135 -2,7 C -4,6 C
14.02.2013 23:31 -0,8 C 87 % 1019,4 hPa 0,0 l/m 11,5 km/h (2 Bft) SO 135 -2,7 C -4,7 C
14.02.2013 23:36 -0,9 C 87 % 1019,3 hPa 0,0 l/m 13,0 km/h (3 Bft) S-SO 157 -2,8 C -5,1 C
14.02.2013 23:41 -0,9 C 87 % 1019,4 hPa 0,0 l/m 9,0 km/h (2 Bft) SO 135 -2,8 C -4,1 C
14.02.2013 23:46 -0,9 C 87 % 1019,6 hPa 0,0 l/m 6,5 km/h (2 Bft) SO 135 -2,8 C -3,3 C
14.02.2013 23:51 -0,9 C 87 % 1019,3 hPa 0,0 l/m 11,9 km/h (2 Bft) SO 135 -2,8 C -4,9 C
14.02.2013 23:56 -0,9 C 87 % 1019,3 hPa 0,0 l/m 13,7 km/h (3 Bft) SO 135 -2,8 C -5,3 C
_ Min-Zeit 08:11 14:46 23:36 - 00:01 - - 08:11 20:41
Minimum _ -2,8 C 78 % 1019,3 hPa - 0,0 km/h (0 Bft) - - -4,5 C -6,5 C
_ Max-Zeit 13:51 05:41 01:46 00:01 20:41 - - 13:51 13:01
Maximum _ 1,3 C 89 % 1029,3 hPa 0,0 l/m 24,5 km/h
SO (4 Bft)
- - -1,8 C 1,0 C
Durchschnitt _ -1,0 C 85 % 1024,7 hPa #0,0 l/m 4,9 km/h (1 Bft) SO - -3,1 C -2,2 C
(c) by David Heller